createdAt,value
2023-02-02T00:01:33.942Z,22.77
2023-02-02T00:04:01.337Z,18.92
2023-02-02T00:06:30.010Z,19.67
2023-02-02T00:08:59.558Z,19.35
2023-02-02T00:11:27.091Z,19.63
2023-02-02T00:13:54.570Z,18.42
2023-02-02T00:16:27.198Z,19.85
2023-02-02T00:19:03.964Z,16.83
2023-02-02T00:21:30.975Z,18.42
2023-02-02T00:23:57.894Z,19.50
2023-02-02T00:26:25.696Z,19.92
2023-02-02T00:28:53.255Z,16.00
2023-02-02T00:31:20.199Z,18.13
2023-02-02T00:33:48.411Z,19.15
2023-02-02T00:36:15.999Z,21.23
2023-02-02T00:38:43.130Z,14.48
2023-02-02T00:41:10.293Z,21.77
2023-02-02T00:43:37.220Z,17.25
2023-02-02T00:46:04.361Z,16.25
2023-02-02T00:48:31.358Z,21.90
2023-02-02T00:50:58.383Z,19.73
2023-02-02T00:53:25.282Z,18.23
2023-02-02T00:55:52.142Z,17.13
2023-02-02T00:58:19.087Z,16.73
2023-02-02T01:00:47.777Z,18.77
2023-02-02T01:03:15.089Z,20.83
2023-02-02T01:05:42.209Z,24.30
2023-02-02T01:08:09.228Z,21.10
2023-02-02T01:10:36.280Z,17.92
2023-02-02T01:13:03.510Z,19.25
2023-02-02T01:15:31.653Z,20.35
2023-02-02T01:17:58.620Z,19.17
2023-02-02T01:20:25.875Z,20.30
2023-02-02T01:22:53.108Z,20.33
2023-02-02T01:25:20.088Z,20.60
2023-02-02T01:27:47.072Z,22.65
2023-02-02T01:30:15.634Z,21.25
2023-02-02T01:32:42.788Z,19.35
2023-02-02T01:35:10.976Z,25.48
2023-02-02T01:37:39.254Z,23.10
2023-02-02T01:40:07.280Z,23.08
2023-02-02T01:42:34.346Z,19.40
2023-02-02T01:45:14.602Z,19.90
2023-02-02T01:47:52.417Z,24.02
2023-02-02T01:50:23.146Z,21.02
2023-02-02T01:52:54.254Z,16.92
2023-02-02T01:55:24.996Z,18.65
2023-02-02T01:57:56.868Z,19.20
2023-02-02T02:00:27.172Z,18.65
2023-02-02T02:02:59.236Z,21.20
2023-02-02T02:05:35.242Z,17.95
2023-02-02T02:10:36.978Z,17.00
2023-02-02T02:13:05.504Z,19.52
2023-02-02T02:16:04.508Z,17.00
2023-02-02T02:18:45.721Z,16.08
2023-02-02T02:21:44.244Z,21.52
2023-02-02T02:25:19.815Z,20.10
2023-02-02T02:28:00.854Z,23.45
2023-02-02T02:30:49.109Z,15.95
2023-02-02T02:33:33.946Z,18.25
2023-02-02T02:36:14.023Z,24.42
2023-02-02T02:38:59.976Z,17.05
2023-02-02T02:41:33.204Z,18.23
2023-02-02T02:44:05.010Z,18.95
2023-02-02T02:46:32.873Z,19.15
2023-02-02T02:49:01.517Z,19.35
2023-02-02T02:51:43.789Z,19.15
2023-02-02T02:54:26.648Z,17.35
2023-02-02T02:57:41.361Z,16.08
2023-02-02T03:00:24.003Z,17.30
2023-02-02T03:03:11.077Z,19.88
2023-02-02T03:06:16.438Z,17.35
2023-02-02T03:08:48.154Z,16.20
2023-02-02T03:11:16.601Z,21.20
2023-02-02T03:13:44.479Z,17.55
2023-02-02T03:16:11.794Z,16.27
2023-02-02T03:18:39.383Z,15.27
2023-02-02T03:21:06.755Z,18.83
2023-02-02T03:23:33.884Z,15.13
2023-02-02T03:26:01.003Z,16.92
2023-02-02T03:28:28.328Z,14.07
2023-02-02T03:30:57.426Z,16.33
2023-02-02T03:33:24.586Z,19.33
2023-02-02T03:35:51.442Z,16.98
2023-02-02T03:38:18.473Z,11.73
2023-02-02T03:40:45.438Z,13.38
2023-02-02T03:43:12.304Z,12.48
2023-02-02T03:45:40.777Z,12.10
2023-02-02T03:48:07.955Z,15.30
2023-02-02T03:50:34.930Z,10.70
2023-02-02T03:53:01.956Z,11.93
2023-02-02T03:55:29.108Z,8.07
2023-02-02T03:57:56.252Z,10.63
2023-02-02T04:00:23.246Z,8.70
2023-02-02T04:02:50.345Z,6.38
2023-02-02T04:05:17.321Z,6.28
2023-02-02T04:07:44.298Z,5.03
2023-02-02T04:10:11.559Z,4.70
2023-02-02T04:12:38.491Z,6.13
2023-02-02T04:15:06.159Z,4.70
2023-02-02T04:17:33.163Z,6.78
2023-02-02T04:20:00.085Z,6.63
2023-02-02T04:22:27.102Z,5.72
2023-02-02T04:24:54.140Z,5.32
2023-02-02T04:27:21.385Z,4.82
2023-02-02T04:29:48.355Z,4.68
2023-02-02T04:32:16.514Z,4.55
2023-02-02T04:34:43.782Z,5.88
2023-02-02T04:37:11.644Z,4.32
2023-02-02T04:39:38.676Z,4.68
2023-02-02T04:42:05.625Z,4.90
2023-02-02T04:44:32.607Z,4.95
2023-02-02T04:46:59.649Z,5.00
2023-02-02T04:49:26.536Z,5.05
2023-02-02T04:51:53.469Z,4.55
2023-02-02T04:54:20.479Z,4.55
2023-02-02T04:56:47.496Z,3.92
2023-02-02T04:59:14.424Z,4.10
2023-02-02T05:01:41.615Z,5.80
2023-02-02T05:04:08.700Z,3.03
2023-02-02T05:06:35.650Z,4.10
2023-02-02T05:09:03.110Z,8.98
2023-02-02T05:11:30.929Z,5.10
2023-02-02T05:13:57.878Z,4.05
2023-02-02T05:16:27.135Z,5.32
2023-02-02T05:18:56.962Z,2.85
2023-02-02T05:21:24.265Z,4.57
2023-02-02T05:23:51.384Z,4.45
2023-02-02T05:26:22.259Z,4.03
2023-02-02T05:28:49.377Z,4.35
2023-02-02T05:31:16.500Z,5.03
2023-02-02T05:33:43.667Z,4.72
2023-02-02T05:36:10.891Z,6.72
2023-02-02T05:38:38.315Z,4.47
2023-02-02T05:41:05.460Z,4.25
2023-02-02T05:43:33.447Z,6.53
2023-02-02T05:46:00.579Z,4.43
2023-02-02T05:48:28.223Z,3.70
2023-02-02T05:51:04.299Z,5.13
2023-02-02T05:53:32.262Z,6.40
2023-02-02T05:55:59.845Z,4.45
2023-02-02T05:58:27.996Z,5.47
2023-02-02T06:00:56.791Z,4.07
2023-02-02T06:03:24.446Z,5.97
2023-02-02T06:05:51.482Z,4.80
2023-02-02T06:08:18.554Z,6.97
2023-02-02T06:10:45.929Z,5.35
2023-02-02T06:13:13.115Z,4.38
2023-02-02T06:15:42.155Z,4.68
2023-02-02T06:18:09.471Z,4.38
2023-02-02T06:20:36.991Z,3.28
2023-02-02T06:23:05.046Z,4.10
2023-02-02T06:25:50.693Z,4.35
2023-02-02T06:28:17.639Z,3.88
2023-02-02T06:30:44.761Z,6.60
2023-02-02T06:33:12.180Z,5.75
2023-02-02T06:35:39.274Z,4.15
2023-02-02T06:38:06.207Z,5.65
2023-02-02T06:40:33.250Z,3.95
2023-02-02T06:43:02.428Z,5.55
2023-02-02T06:45:30.993Z,5.57
2023-02-02T06:48:03.577Z,5.57
2023-02-02T06:50:30.624Z,3.20
2023-02-02T06:52:57.613Z,4.53
2023-02-02T06:55:25.001Z,3.72
2023-02-02T06:58:00.366Z,3.58
2023-02-02T07:00:29.035Z,4.50
2023-02-02T07:02:56.347Z,2.45
2023-02-02T07:05:29.223Z,3.80
2023-02-02T07:07:57.308Z,4.80
2023-02-02T07:11:11.546Z,7.53
2023-02-02T07:13:11.131Z,10.55
2023-02-02T07:15:41.145Z,8.45
2023-02-02T07:18:08.425Z,10.23
2023-02-02T07:20:35.426Z,8.27
2023-02-02T07:23:05.337Z,8.65
2023-02-02T07:25:32.383Z,5.68
2023-02-02T07:27:59.373Z,8.05
2023-02-02T07:30:44.918Z,6.07
2023-02-02T07:33:11.877Z,5.75
2023-02-02T07:35:38.834Z,7.10
2023-02-02T07:38:05.765Z,6.57
2023-02-02T07:40:32.771Z,7.90
2023-02-02T07:43:01.049Z,10.18
2023-02-02T07:45:28.348Z,7.15
2023-02-02T07:47:59.734Z,7.95
2023-02-02T07:50:28.351Z,6.13
2023-02-02T07:52:55.350Z,6.25
2023-02-02T07:55:22.497Z,5.60
2023-02-02T07:57:52.067Z,4.82
2023-02-02T08:00:19.869Z,4.35
2023-02-02T08:02:49.655Z,6.07
2023-02-02T08:05:16.908Z,7.68
2023-02-02T08:07:44.831Z,8.15
2023-02-02T08:10:12.016Z,10.27
2023-02-02T08:12:39.091Z,6.88
2023-02-02T08:15:07.747Z,8.63
2023-02-02T08:17:34.714Z,9.75
2023-02-02T08:20:01.613Z,7.63
2023-02-02T08:22:28.554Z,11.27
2023-02-02T08:24:55.505Z,10.77
2023-02-02T08:27:22.455Z,12.18
2023-02-02T08:29:49.440Z,7.32
2023-02-02T08:32:16.467Z,6.38
2023-02-02T08:34:43.386Z,6.55
2023-02-02T08:37:10.469Z,2.97
2023-02-02T08:39:37.662Z,6.90
2023-02-02T08:42:04.632Z,7.30
2023-02-02T08:46:00.373Z,4.53
2023-02-02T08:47:18.467Z,4.00
2023-02-02T08:49:46.084Z,5.40
2023-02-02T08:52:13.308Z,6.63
2023-02-02T08:54:40.375Z,4.28
2023-02-02T08:57:07.363Z,1.67
2023-02-02T08:59:34.657Z,4.38
2023-02-02T09:02:01.696Z,4.68
2023-02-02T09:04:28.750Z,4.88
2023-02-02T09:06:55.703Z,5.10
2023-02-02T09:09:22.740Z,3.33
2023-02-02T09:11:49.663Z,3.80
2023-02-02T09:14:16.646Z,6.63
2023-02-02T09:16:43.684Z,6.80
2023-02-02T09:19:11.957Z,4.00
2023-02-02T09:21:38.878Z,5.00
2023-02-02T09:24:08.224Z,7.07
2023-02-02T09:26:53.873Z,4.47
2023-02-02T09:29:21.422Z,6.53
2023-02-02T09:31:48.490Z,7.82
2023-02-02T09:34:15.885Z,4.70
2023-02-02T09:36:43.870Z,4.15
2023-02-02T09:39:12.922Z,8.52
2023-02-02T09:41:40.509Z,4.45
2023-02-02T09:44:29.112Z,6.03
2023-02-02T09:47:10.466Z,6.32
2023-02-02T09:50:01.499Z,4.10
2023-02-02T09:52:46.219Z,5.75
2023-02-02T09:55:20.957Z,5.90
2023-02-02T09:57:53.073Z,3.55
2023-02-02T10:00:31.481Z,1.80
2023-02-02T10:03:07.625Z,5.35
2023-02-02T10:06:01.868Z,4.18
2023-02-02T10:08:53.960Z,2.40
2023-02-02T10:11:47.196Z,6.13
2023-02-02T10:14:46.546Z,5.57
2023-02-02T10:17:32.259Z,4.28
2023-02-02T10:20:28.915Z,4.40
2023-02-02T10:25:28.888Z,7.13
2023-02-02T10:28:12.440Z,6.00
2023-02-02T10:30:50.516Z,6.70
2023-02-02T10:33:28.724Z,7.15
2023-02-02T10:36:32.312Z,7.82
2023-02-02T10:39:10.001Z,10.35
2023-02-02T10:42:07.117Z,6.53
2023-02-02T10:44:47.101Z,10.90
2023-02-02T10:47:38.935Z,8.23
2023-02-02T10:50:16.600Z,9.82
2023-02-02T10:52:54.899Z,12.65
2023-02-02T10:55:36.994Z,13.65
2023-02-02T10:58:26.239Z,19.08
2023-02-02T11:00:55.931Z,13.05
2023-02-02T11:03:32.457Z,13.20
2023-02-02T11:06:40.663Z,14.20
2023-02-02T11:09:13.818Z,10.38
2023-02-02T11:11:45.349Z,13.05
2023-02-02T11:14:21.946Z,13.13
2023-02-02T11:19:30.037Z,13.05
2023-02-02T11:22:02.347Z,11.90
2023-02-02T11:24:55.511Z,14.52
2023-02-02T11:27:40.727Z,9.93
2023-02-02T11:30:27.581Z,13.27
2023-02-02T11:32:55.928Z,10.43
2023-02-02T11:35:25.108Z,8.57
2023-02-02T11:38:01.122Z,7.45
2023-02-02T11:40:28.749Z,9.63
2023-02-02T11:42:57.745Z,11.00
2023-02-02T11:45:39.024Z,10.00
2023-02-02T11:48:20.475Z,8.25
2023-02-02T11:50:51.670Z,7.82
2023-02-02T11:53:27.346Z,8.15
2023-02-02T11:55:56.216Z,10.32
2023-02-02T11:58:27.882Z,6.93
2023-02-02T12:01:03.701Z,9.38
2023-02-02T12:06:19.118Z,8.35
2023-02-02T12:08:46.825Z,8.40
2023-02-02T12:11:34.365Z,6.72
2023-02-02T12:14:01.243Z,7.85
2023-02-02T12:16:37.079Z,7.28
2023-02-02T12:19:47.999Z,5.20
2023-02-02T12:22:35.747Z,6.68
2023-02-02T12:25:15.094Z,5.57
2023-02-02T12:28:05.689Z,7.00
2023-02-02T12:31:03.161Z,7.13
2023-02-02T12:34:00.861Z,7.88
2023-02-02T12:36:36.918Z,4.60
2023-02-02T12:39:31.237Z,5.63
2023-02-02T12:42:08.137Z,6.50
2023-02-02T12:45:26.757Z,4.65
2023-02-02T12:48:10.107Z,6.68
2023-02-02T12:50:51.991Z,6.25
2023-02-02T12:53:25.329Z,12.35
2023-02-02T12:56:12.507Z,6.50
2023-02-02T12:58:55.934Z,6.32
2023-02-02T13:01:48.002Z,4.88
2023-02-02T13:04:23.956Z,6.82
2023-02-02T13:07:00.024Z,5.82
2023-02-02T13:09:29.825Z,5.53
2023-02-02T13:12:10.119Z,6.68
2023-02-02T13:14:51.433Z,5.30
2023-02-02T13:17:21.539Z,6.95
2023-02-02T13:19:53.927Z,7.05
2023-02-02T13:22:41.771Z,6.28
2023-02-02T13:25:31.562Z,5.30
2023-02-02T13:28:00.639Z,6.25
2023-02-02T13:30:39.558Z,7.20
2023-02-02T13:33:12.121Z,8.68
2023-02-02T13:36:28.549Z,7.80
2023-02-02T13:39:01.824Z,6.95
2023-02-02T13:41:31.352Z,8.55
2023-02-02T13:44:12.507Z,9.43
2023-02-02T13:47:02.879Z,6.95
2023-02-02T13:49:42.033Z,10.27
2023-02-02T13:52:41.607Z,12.68
2023-02-02T13:55:45.531Z,9.02
2023-02-02T13:58:36.937Z,10.70
2023-02-02T14:01:09.220Z,10.77
2023-02-02T14:03:44.767Z,7.95
2023-02-02T14:06:19.054Z,9.55
2023-02-02T14:09:04.187Z,10.43
2023-02-02T14:11:37.894Z,10.13
2023-02-02T14:14:38.912Z,8.73
2023-02-02T14:17:13.278Z,12.05
2023-02-02T14:19:42.224Z,9.43
2023-02-02T14:22:09.210Z,10.00
2023-02-02T14:24:36.030Z,8.02
2023-02-02T14:27:07.628Z,10.00
2023-02-02T14:29:36.755Z,7.82
2023-02-02T14:32:06.895Z,8.82
2023-02-02T14:34:41.808Z,9.07
2023-02-02T14:37:26.914Z,8.82
2023-02-02T14:40:24.155Z,10.15
2023-02-02T14:43:12.585Z,12.57
2023-02-02T14:45:41.699Z,10.43
2023-02-02T14:48:09.164Z,10.18
2023-02-02T14:50:39.098Z,11.68
2023-02-02T14:53:20.607Z,10.40
2023-02-02T14:56:02.825Z,11.00
2023-02-02T14:58:36.814Z,12.93
2023-02-02T15:01:10.122Z,10.40
2023-02-02T15:04:14.485Z,12.48
2023-02-02T15:06:43.011Z,13.40
2023-02-02T15:09:28.344Z,11.63
2023-02-02T15:12:10.940Z,11.98
2023-02-02T15:15:08.167Z,12.80
2023-02-02T15:17:41.260Z,10.63
2023-02-02T15:20:21.812Z,13.75
2023-02-02T15:23:00.927Z,16.52
2023-02-02T15:25:51.874Z,14.57
2023-02-02T15:28:21.847Z,15.00
2023-02-02T15:30:59.759Z,18.60
2023-02-02T15:33:37.172Z,16.45
2023-02-02T15:36:10.580Z,15.15
2023-02-02T15:38:43.206Z,16.23
2023-02-02T15:41:37.959Z,18.30
2023-02-02T15:44:26.554Z,17.75
2023-02-02T15:46:55.117Z,17.55
2023-02-02T15:49:34.862Z,17.13
2023-02-02T15:52:18.512Z,17.15
2023-02-02T15:54:57.158Z,17.33
2023-02-02T15:57:36.629Z,17.58
2023-02-02T16:00:34.940Z,18.05
2023-02-02T16:03:22.989Z,15.75
2023-02-02T16:05:56.981Z,19.88
2023-02-02T16:08:34.278Z,18.77
2023-02-02T16:11:14.221Z,19.17
2023-02-02T16:13:44.088Z,20.20
2023-02-02T16:16:24.997Z,17.42
2023-02-02T16:19:25.171Z,16.00
2023-02-02T16:22:07.495Z,16.80
2023-02-02T16:24:39.637Z,19.05
2023-02-02T16:27:12.124Z,15.95
2023-02-02T16:29:42.723Z,18.17
2023-02-02T16:32:41.938Z,16.45
2023-02-02T16:35:33.724Z,18.90
2023-02-02T16:38:36.712Z,19.15
2023-02-02T16:41:07.953Z,17.90
2023-02-02T16:43:37.872Z,19.33
2023-02-02T16:46:11.937Z,21.67
2023-02-02T16:48:45.082Z,16.50
2023-02-02T16:51:15.965Z,16.73
2023-02-02T16:53:46.248Z,20.67
2023-02-02T16:56:36.900Z,18.17
2023-02-02T16:59:24.647Z,16.85
2023-02-02T17:02:40.847Z,19.92
2023-02-02T17:05:19.470Z,20.40
2023-02-02T17:07:49.723Z,15.68
2023-02-02T17:10:16.539Z,20.25
2023-02-02T17:12:44.917Z,19.02
2023-02-02T17:15:18.018Z,18.45
2023-02-02T17:17:48.009Z,19.63
2023-02-02T17:20:16.441Z,18.08
2023-02-02T17:22:48.189Z,21.10
2023-02-02T17:25:23.211Z,19.42
2023-02-02T17:27:50.344Z,23.98
2023-02-02T17:30:18.854Z,22.98
2023-02-02T17:32:46.021Z,21.27
2023-02-02T17:35:23.563Z,25.35
2023-02-02T17:37:54.194Z,24.92
2023-02-02T17:40:23.170Z,22.00
2023-02-02T17:42:52.312Z,20.42
2023-02-02T17:45:29.528Z,19.15
2023-02-02T17:47:56.557Z,20.63
2023-02-02T17:50:24.532Z,24.27
2023-02-02T17:52:52.301Z,19.98
2023-02-02T17:55:21.288Z,19.10
2023-02-02T17:57:49.262Z,20.80
2023-02-02T18:00:18.609Z,23.90
2023-02-02T18:02:47.255Z,21.50
2023-02-02T18:05:15.541Z,24.08
2023-02-02T18:07:43.607Z,20.48
2023-02-02T18:10:12.595Z,18.98
2023-02-02T18:12:39.864Z,24.73
2023-02-02T18:15:11.095Z,20.55
2023-02-02T18:17:38.190Z,23.05
2023-02-02T18:20:05.912Z,19.27
2023-02-02T18:22:33.057Z,25.98
2023-02-02T18:25:00.100Z,21.63
2023-02-02T18:27:29.764Z,19.42
2023-02-02T18:29:56.721Z,20.48
2023-02-02T18:32:23.608Z,20.52
2023-02-02T18:34:55.357Z,17.42
2023-02-02T18:37:24.069Z,22.33
2023-02-02T18:39:51.831Z,24.73
2023-02-02T18:42:18.687Z,18.58
2023-02-02T18:44:45.571Z,23.55
2023-02-02T18:47:12.471Z,21.67
2023-02-02T18:49:39.355Z,26.05
2023-02-02T18:52:07.032Z,22.08
2023-02-02T18:54:35.772Z,18.67
2023-02-02T18:57:02.763Z,24.58
2023-02-02T18:59:32.192Z,22.40
2023-02-02T19:01:59.262Z,21.85
2023-02-02T19:04:26.206Z,19.48
2023-02-02T19:07:19.406Z,19.75
2023-02-02T19:09:46.338Z,18.95
2023-02-02T19:12:14.834Z,19.13
2023-02-02T19:14:42.397Z,22.60
2023-02-02T19:17:15.337Z,25.08
2023-02-02T19:19:42.942Z,21.67
2023-02-02T19:22:22.752Z,26.77
2023-02-02T19:24:50.404Z,21.95
2023-02-02T19:27:23.616Z,22.13
2023-02-02T19:29:54.045Z,20.10
2023-02-02T19:32:26.786Z,18.33
2023-02-02T19:34:58.528Z,23.55
2023-02-02T19:37:32.473Z,25.90
2023-02-02T19:40:14.821Z,24.60
2023-02-02T19:42:47.120Z,23.60
2023-02-02T19:45:23.479Z,24.50
2023-02-02T19:47:52.143Z,25.60
2023-02-02T19:50:21.719Z,21.95
2023-02-02T19:52:49.913Z,22.38
2023-02-02T19:55:28.379Z,22.55
2023-02-02T19:58:01.964Z,22.45
2023-02-02T20:00:31.433Z,25.10
2023-02-02T20:03:07.545Z,24.95
2023-02-02T20:05:39.832Z,22.48
2023-02-02T20:08:35.627Z,21.63
2023-02-02T20:11:35.327Z,22.77
2023-02-02T20:14:29.312Z,20.38
2023-02-02T20:17:11.304Z,25.85
2023-02-02T20:19:41.751Z,21.67
2023-02-02T20:22:29.291Z,22.73
2023-02-02T20:25:00.789Z,22.38
2023-02-02T20:27:29.114Z,20.40
2023-02-02T20:30:01.591Z,23.92
2023-02-02T20:32:40.023Z,24.02
2023-02-02T20:35:35.967Z,23.08
2023-02-02T20:38:29.814Z,22.52
2023-02-02T20:40:57.033Z,23.45
2023-02-02T20:43:24.047Z,20.67
2023-02-02T20:45:51.446Z,21.50
2023-02-02T20:48:18.438Z,22.02
2023-02-02T20:50:46.764Z,22.23
2023-02-02T20:53:16.458Z,21.83
2023-02-02T20:55:44.615Z,23.08
2023-02-02T20:58:12.008Z,20.88
2023-02-02T21:00:39.525Z,22.70
2023-02-02T21:03:06.475Z,20.45
2023-02-02T21:05:33.479Z,19.92
2023-02-02T21:08:00.432Z,20.55
2023-02-02T21:10:27.778Z,21.08
2023-02-02T21:12:54.850Z,23.33
2023-02-02T21:15:21.803Z,24.13
2023-02-02T21:17:48.883Z,23.30
2023-02-02T21:20:15.932Z,22.55
2023-02-02T21:22:42.891Z,22.15
2023-02-02T21:25:10.120Z,25.50
2023-02-02T21:27:37.661Z,24.55
2023-02-02T21:30:05.346Z,20.83
2023-02-02T21:32:33.800Z,25.10
2023-02-02T21:35:00.798Z,26.30
2023-02-02T21:37:27.687Z,25.75
2023-02-02T21:39:59.851Z,22.05
2023-02-02T21:42:28.434Z,24.77
2023-02-02T21:45:20.188Z,22.80
2023-02-02T21:47:54.186Z,22.10
2023-02-02T21:50:37.086Z,23.40
2023-02-02T21:53:19.073Z,21.90
2023-02-02T21:55:57.217Z,28.13
2023-02-02T21:58:34.370Z,22.98
2023-02-02T22:01:16.736Z,25.50
2023-02-02T22:03:46.654Z,22.42
2023-02-02T22:06:27.771Z,20.90
2023-02-02T22:09:01.755Z,24.42
2023-02-02T22:11:35.944Z,24.77
2023-02-02T22:14:39.992Z,21.38
2023-02-02T22:17:46.975Z,25.85
2023-02-02T22:20:17.318Z,42.80
2023-02-02T22:22:46.728Z,26.13
2023-02-02T22:25:16.455Z,23.45
2023-02-02T22:27:51.446Z,26.45
2023-02-02T22:30:30.569Z,24.70
2023-02-02T22:32:57.436Z,28.80
2023-02-02T22:35:24.379Z,24.60
2023-02-02T22:37:51.563Z,27.95
2023-02-02T22:40:22.339Z,27.65
2023-02-02T22:42:54.086Z,25.67
2023-02-02T22:45:21.624Z,26.67
2023-02-02T22:47:49.186Z,28.70
2023-02-02T22:50:22.452Z,27.88
2023-02-02T22:52:50.130Z,26.33
2023-02-02T22:55:17.863Z,26.40
2023-02-02T22:57:45.010Z,25.40
2023-02-02T23:00:19.031Z,27.85
2023-02-02T23:02:46.087Z,26.35
2023-02-02T23:05:15.337Z,21.73
2023-02-02T23:07:45.816Z,30.40
2023-02-02T23:10:15.150Z,27.10
2023-02-02T23:12:43.072Z,26.00
2023-02-02T23:15:10.874Z,28.73
2023-02-02T23:17:38.006Z,26.80
2023-02-02T23:20:08.636Z,26.92
2023-02-02T23:22:35.630Z,26.83
2023-02-02T23:25:02.879Z,24.13
2023-02-02T23:27:29.734Z,27.05
2023-02-02T23:29:56.633Z,22.23
2023-02-02T23:32:23.544Z,23.77
2023-02-02T23:34:50.508Z,24.13
2023-02-02T23:37:17.489Z,28.50
2023-02-02T23:39:44.425Z,27.60
2023-02-02T23:42:11.334Z,27.15
2023-02-02T23:44:38.276Z,25.42
2023-02-02T23:47:05.872Z,34.03
2023-02-02T23:49:33.117Z,24.95
2023-02-02T23:52:00.688Z,29.45
2023-02-02T23:54:29.110Z,24.92
2023-02-02T23:56:56.897Z,27.55
2023-02-02T23:59:23.747Z,24.45
